createdAt,value
2023-04-23T00:02:49.982Z,51.15
2023-04-23T00:05:52.709Z,54.42
2023-04-23T00:08:55.280Z,52.00
2023-04-23T00:11:58.041Z,46.67
2023-04-23T00:15:00.480Z,50.13
2023-04-23T00:18:02.060Z,51.13
2023-04-23T00:21:03.716Z,53.75
2023-04-23T00:24:05.665Z,49.75
2023-04-23T00:27:07.305Z,49.65
2023-04-23T00:30:09.830Z,48.15
2023-04-23T00:33:11.443Z,52.38
2023-04-23T00:36:12.993Z,54.97
2023-04-23T00:39:14.582Z,51.05
2023-04-23T00:42:17.099Z,48.00
2023-04-23T00:45:18.939Z,53.38
2023-04-23T00:48:21.049Z,55.22
2023-04-23T00:51:25.887Z,55.22
2023-04-23T00:54:28.065Z,50.25
2023-04-23T00:57:29.722Z,49.53
2023-04-23T01:00:31.370Z,46.25
2023-04-23T01:03:36.332Z,49.10
2023-04-23T01:06:38.240Z,50.53
2023-04-23T01:09:40.484Z,40.35
2023-04-23T01:12:42.061Z,45.35
2023-04-23T01:15:45.119Z,45.50
2023-04-23T01:18:47.030Z,42.17
2023-04-23T01:21:50.794Z,39.35
2023-04-23T01:24:52.633Z,41.35
2023-04-23T01:27:54.489Z,40.38
2023-04-23T01:30:56.843Z,39.33
2023-04-23T01:34:00.150Z,42.95
2023-04-23T01:37:04.284Z,40.03
2023-04-23T01:40:08.388Z,41.17
2023-04-23T01:43:10.956Z,42.50
2023-04-23T01:46:12.882Z,43.50
2023-04-23T01:49:14.734Z,39.03
2023-04-23T01:52:16.346Z,37.90
2023-04-23T01:55:19.223Z,41.30
2023-04-23T01:58:21.252Z,41.03
2023-04-23T02:01:22.949Z,40.15
2023-04-23T02:04:24.837Z,42.90
2023-04-23T02:07:26.561Z,43.58
2023-04-23T02:10:30.515Z,40.15
2023-04-23T02:13:32.810Z,40.45
2023-04-23T02:16:35.517Z,39.88
2023-04-23T02:19:37.070Z,40.40
2023-04-23T02:22:40.878Z,39.95
2023-04-23T02:25:43.549Z,38.58
2023-04-23T02:28:46.043Z,40.22
2023-04-23T02:31:47.665Z,38.83
2023-04-23T02:34:49.261Z,36.50
2023-04-23T02:37:51.294Z,42.53
2023-04-23T02:40:52.827Z,40.00
2023-04-23T02:43:54.410Z,41.17
2023-04-23T02:46:56.274Z,39.30
2023-04-23T02:49:58.148Z,41.40
2023-04-23T02:52:59.706Z,39.78
2023-04-23T02:56:02.433Z,43.38
2023-04-23T02:59:04.573Z,35.85
2023-04-23T03:02:06.175Z,40.65
2023-04-23T03:05:08.420Z,37.33
2023-04-23T03:08:09.982Z,39.63
2023-04-23T03:11:11.548Z,41.70
2023-04-23T03:14:13.117Z,37.67
2023-04-23T03:17:14.773Z,37.10
2023-04-23T03:20:16.344Z,37.15
2023-04-23T03:23:17.922Z,37.40
2023-04-23T03:26:19.476Z,36.22
2023-04-23T03:29:21.124Z,33.75
2023-04-23T03:32:22.720Z,36.28
2023-04-23T03:35:26.444Z,38.22
2023-04-23T03:38:28.040Z,35.22
2023-04-23T03:41:29.595Z,40.10
2023-04-23T03:44:31.221Z,37.42
2023-04-23T03:47:32.893Z,35.88
2023-04-23T03:50:38.769Z,36.83
2023-04-23T03:53:40.399Z,31.08
2023-04-23T03:56:42.000Z,36.20
2023-04-23T03:59:43.594Z,37.63
2023-04-23T04:02:45.217Z,33.63
2023-04-23T04:05:47.015Z,37.38
2023-04-23T04:08:48.582Z,34.95
2023-04-23T04:11:51.312Z,32.03
2023-04-23T04:14:53.823Z,33.47
2023-04-23T04:17:55.410Z,34.38
2023-04-23T04:20:56.966Z,31.88
2023-04-23T04:23:58.511Z,31.77
2023-04-23T04:27:01.621Z,32.47
2023-04-23T04:30:05.467Z,30.92
2023-04-23T04:33:07.008Z,29.17
2023-04-23T04:36:09.383Z,31.02
2023-04-23T04:39:11.012Z,28.15
2023-04-23T04:42:13.056Z,27.90
2023-04-23T04:45:15.248Z,27.25
2023-04-23T04:48:16.822Z,27.40
2023-04-23T04:51:18.396Z,26.52
2023-04-23T04:54:20.775Z,29.05
2023-04-23T04:57:23.051Z,28.20
2023-04-23T05:00:29.383Z,27.98
2023-04-23T05:03:31.382Z,26.80
2023-04-23T05:06:33.175Z,25.65
2023-04-23T05:09:34.793Z,27.10
2023-04-23T05:12:37.142Z,25.33
2023-04-23T05:15:38.842Z,25.63
2023-04-23T05:18:41.739Z,24.85
2023-04-23T05:21:43.608Z,25.60
2023-04-23T05:24:46.401Z,26.05
2023-04-23T05:27:48.007Z,25.23
2023-04-23T05:30:50.605Z,23.10
2023-04-23T05:33:53.062Z,21.52
2023-04-23T05:36:54.620Z,21.25
2023-04-23T05:39:57.409Z,20.80
2023-04-23T05:42:59.261Z,21.52
2023-04-23T05:46:00.855Z,20.48
2023-04-23T05:49:02.602Z,19.52
2023-04-23T05:52:04.536Z,20.02
2023-04-23T05:55:07.925Z,20.15
2023-04-23T05:58:09.855Z,17.55
2023-04-23T06:01:11.490Z,18.95
2023-04-23T06:04:13.713Z,19.65
2023-04-23T06:07:15.796Z,18.65
2023-04-23T06:10:17.377Z,19.45
2023-04-23T06:13:18.978Z,20.13
2023-04-23T06:16:20.579Z,21.95
2023-04-23T06:19:24.978Z,20.67
2023-04-23T06:22:26.525Z,20.90
2023-04-23T06:25:28.279Z,21.85
2023-04-23T06:28:29.949Z,20.45
2023-04-23T06:31:31.558Z,21.90
2023-04-23T06:34:33.138Z,21.13
2023-04-23T06:37:34.769Z,19.88
2023-04-23T06:40:36.409Z,19.88
2023-04-23T06:43:37.991Z,20.05
2023-04-23T06:46:39.582Z,19.70
2023-04-23T06:49:41.259Z,20.02
2023-04-23T06:52:43.364Z,19.40
2023-04-23T06:55:45.475Z,18.73
2023-04-23T06:58:47.181Z,19.33
2023-04-23T07:01:48.828Z,17.15
2023-04-23T07:04:50.408Z,16.92
2023-04-23T07:07:53.415Z,15.10
2023-04-23T07:10:55.689Z,15.85
2023-04-23T07:13:57.945Z,13.82
2023-04-23T07:16:59.603Z,14.32
2023-04-23T07:20:04.864Z,12.95
2023-04-23T07:23:06.522Z,12.77
2023-04-23T07:26:08.091Z,11.27
2023-04-23T07:29:14.028Z,12.23
2023-04-23T07:32:16.226Z,11.32
2023-04-23T07:35:18.706Z,11.23
2023-04-23T07:38:20.260Z,10.10
2023-04-23T07:41:21.830Z,11.20
2023-04-23T07:44:23.377Z,10.27
2023-04-23T07:47:25.036Z,10.90
2023-04-23T07:50:26.581Z,9.65
2023-04-23T07:53:28.605Z,10.77
2023-04-23T07:56:32.378Z,10.15
2023-04-23T07:59:34.080Z,8.50
2023-04-23T08:02:35.929Z,8.82
2023-04-23T08:05:39.061Z,7.68
2023-04-23T08:08:40.740Z,7.85
2023-04-23T08:11:42.366Z,8.20
2023-04-23T08:14:44.504Z,7.53
2023-04-23T08:17:46.063Z,8.20
2023-04-23T08:20:48.383Z,9.40
2023-04-23T08:23:49.964Z,7.97
2023-04-23T08:26:51.992Z,8.65
2023-04-23T08:29:53.546Z,8.43
2023-04-23T08:32:55.312Z,7.72
2023-04-23T08:35:56.949Z,8.10
2023-04-23T08:38:58.560Z,7.90
2023-04-23T08:42:09.942Z,7.32
2023-04-23T08:45:12.873Z,7.53
2023-04-23T08:48:14.706Z,7.63
2023-04-23T08:51:19.639Z,6.30
2023-04-23T08:54:28.776Z,6.22
2023-04-23T08:57:31.249Z,5.97
2023-04-23T09:00:34.488Z,5.38
2023-04-23T09:03:38.422Z,5.68
2023-04-23T09:06:40.238Z,5.82
2023-04-23T09:09:42.269Z,5.70
2023-04-23T09:12:44.874Z,5.88
2023-04-23T09:15:46.538Z,4.90
2023-04-23T09:18:49.700Z,4.50
2023-04-23T09:21:51.644Z,5.50
2023-04-23T09:24:54.430Z,5.60
2023-04-23T09:27:58.677Z,5.97
2023-04-23T09:31:00.809Z,5.95
2023-04-23T09:34:02.666Z,6.30
2023-04-23T09:37:06.064Z,5.25
2023-04-23T09:40:10.862Z,4.47
2023-04-23T09:43:12.473Z,4.35
2023-04-23T09:46:14.114Z,4.78
2023-04-23T09:49:15.891Z,4.80
2023-04-23T09:52:18.675Z,4.38
2023-04-23T09:55:29.038Z,3.95
2023-04-23T09:58:30.620Z,3.75
2023-04-23T10:01:32.223Z,3.83
2023-04-23T10:04:34.727Z,3.70
2023-04-23T10:07:37.835Z,4.00
2023-04-23T10:10:54.470Z,4.45
2023-04-23T10:13:58.853Z,4.03
2023-04-23T10:17:04.836Z,4.20
2023-04-23T10:20:08.305Z,4.00
2023-04-23T10:23:14.214Z,3.88
2023-04-23T10:26:19.404Z,3.50
2023-04-23T10:29:26.999Z,3.53
2023-04-23T10:32:29.372Z,3.28
2023-04-23T10:35:31.580Z,3.05
2023-04-23T10:38:33.875Z,3.25
2023-04-23T10:41:38.413Z,3.83
2023-04-23T10:47:48.163Z,3.85
2023-04-23T10:51:09.692Z,3.15
2023-04-23T10:54:19.858Z,3.60
2023-04-23T10:57:21.504Z,3.42
2023-04-23T11:00:23.180Z,2.90
2023-04-23T11:03:32.090Z,3.00
2023-04-23T11:06:48.894Z,3.63
2023-04-23T11:09:52.676Z,2.70
2023-04-23T11:12:56.300Z,2.30
2023-04-23T11:16:16.463Z,2.45
2023-04-23T11:19:20.560Z,2.70
2023-04-23T11:22:24.405Z,4.20
2023-04-23T11:25:27.751Z,3.83
2023-04-23T11:28:32.457Z,3.60
2023-04-23T11:31:34.511Z,2.92
2023-04-23T11:34:37.587Z,3.42
2023-04-23T11:37:43.633Z,3.58
2023-04-23T11:40:48.329Z,3.45
2023-04-23T11:43:49.866Z,3.80
2023-04-23T11:46:51.467Z,3.55
2023-04-23T11:49:53.011Z,3.50
2023-04-23T11:52:54.898Z,2.80
2023-04-23T11:55:56.496Z,3.47
2023-04-23T11:59:03.556Z,2.92
2023-04-23T12:02:05.500Z,3.03
2023-04-23T12:05:09.129Z,2.92
2023-04-23T12:08:14.558Z,3.05
2023-04-23T12:11:16.161Z,3.10
2023-04-23T12:14:20.932Z,2.95
2023-04-23T12:17:22.479Z,2.63
2023-04-23T12:20:24.212Z,2.90
2023-04-23T12:23:27.992Z,2.60
2023-04-23T12:26:29.735Z,2.38
2023-04-23T12:29:31.762Z,2.63
2023-04-23T12:32:34.373Z,2.80
2023-04-23T12:35:39.238Z,2.75
2023-04-23T12:38:42.350Z,2.63
2023-04-23T12:41:43.912Z,2.70
2023-04-23T12:44:45.900Z,2.30
2023-04-23T12:47:47.474Z,2.75
2023-04-23T12:50:49.118Z,2.50
2023-04-23T12:53:51.208Z,2.30
2023-04-23T12:56:53.651Z,2.25
2023-04-23T12:59:55.400Z,1.83
2023-04-23T13:02:57.311Z,2.20
2023-04-23T13:05:58.989Z,2.17
2023-04-23T13:09:03.810Z,2.10
2023-04-23T13:12:05.582Z,2.10
2023-04-23T13:15:09.170Z,1.67
2023-04-23T13:18:10.845Z,1.88
2023-04-23T13:21:12.386Z,1.52
2023-04-23T13:24:14.152Z,1.10
2023-04-23T13:27:15.987Z,1.50
2023-04-23T13:30:17.632Z,1.40
2023-04-23T13:33:21.091Z,1.35
2023-04-23T13:36:22.814Z,1.58
2023-04-23T13:39:24.638Z,1.23
2023-04-23T13:42:26.274Z,1.60
2023-04-23T13:45:27.952Z,1.30
2023-04-23T13:48:31.261Z,1.50
2023-04-23T13:51:35.272Z,1.20
2023-04-23T13:54:37.622Z,1.33
2023-04-23T13:57:39.994Z,1.65
2023-04-23T14:00:43.023Z,1.63
2023-04-23T14:03:44.953Z,1.33
2023-04-23T14:06:46.637Z,1.42
2023-04-23T14:09:52.589Z,1.80
2023-04-23T14:12:55.292Z,1.67
2023-04-23T14:15:56.968Z,1.50
2023-04-23T14:18:58.677Z,1.40
2023-04-23T14:22:00.791Z,1.95
2023-04-23T14:25:04.714Z,1.35
2023-04-23T14:28:28.369Z,1.55
2023-04-23T14:31:30.785Z,1.60
2023-04-23T14:34:35.602Z,1.50
2023-04-23T14:37:37.326Z,1.38
2023-04-23T14:40:38.962Z,1.60
2023-04-23T14:43:40.566Z,1.55
2023-04-23T14:46:42.295Z,1.77
2023-04-23T14:49:45.558Z,1.70
2023-04-23T14:52:48.685Z,1.80
2023-04-23T14:55:50.231Z,1.40
2023-04-23T14:58:51.793Z,1.38
2023-04-23T15:01:53.873Z,1.20
2023-04-23T15:04:56.533Z,1.60
2023-04-23T15:07:58.307Z,1.48
2023-04-23T15:11:00.080Z,1.05
2023-04-23T15:14:18.331Z,1.38
2023-04-23T15:17:19.899Z,1.40
2023-04-23T15:20:21.785Z,1.60
2023-04-23T15:23:24.097Z,1.10
2023-04-23T15:26:26.284Z,1.20
2023-04-23T15:29:28.253Z,1.25
2023-04-23T15:32:29.942Z,1.33
2023-04-23T15:35:31.536Z,1.20
2023-04-23T15:38:33.460Z,1.45
2023-04-23T15:41:39.508Z,1.30
2023-04-23T15:44:42.566Z,1.20
2023-04-23T15:47:44.218Z,1.38
2023-04-23T15:50:45.993Z,1.08
2023-04-23T15:53:47.782Z,1.52
2023-04-23T15:56:49.391Z,1.60
2023-04-23T15:59:51.003Z,1.40
2023-04-23T16:02:53.016Z,1.50
2023-04-23T16:05:54.660Z,1.45
2023-04-23T16:08:57.338Z,2.10
2023-04-23T16:11:59.677Z,2.10
2023-04-23T16:15:01.365Z,2.35
2023-04-23T16:18:03.328Z,2.47
2023-04-23T16:21:06.080Z,2.25
2023-04-23T16:24:07.950Z,2.20
2023-04-23T16:27:10.802Z,3.25
2023-04-23T16:30:12.700Z,2.78
2023-04-23T16:33:14.436Z,3.55
2023-04-23T16:36:16.168Z,3.13
2023-04-23T16:39:17.775Z,2.67
2023-04-23T16:42:19.507Z,3.55
2023-04-23T16:45:23.082Z,3.67
2023-04-23T16:48:24.906Z,4.25
2023-04-23T16:51:26.812Z,4.13
2023-04-23T16:54:28.618Z,3.60
2023-04-23T16:57:30.229Z,3.92
2023-04-23T17:00:32.197Z,4.20
2023-04-23T17:03:34.045Z,4.18
2023-04-23T17:06:35.987Z,4.07
2023-04-23T17:09:37.634Z,4.30
2023-04-23T17:12:39.201Z,4.70
2023-04-23T17:15:41.104Z,5.65
2023-04-23T17:18:42.766Z,4.97
2023-04-23T17:21:44.676Z,5.05
2023-04-23T17:24:46.214Z,5.90
2023-04-23T17:27:47.802Z,5.60
2023-04-23T17:30:53.736Z,6.38
2023-04-23T17:33:56.369Z,6.65
2023-04-23T17:36:57.977Z,5.88
2023-04-23T17:39:59.529Z,6.68
2023-04-23T17:43:01.199Z,6.63
2023-04-23T17:46:03.296Z,5.70
2023-04-23T17:49:05.094Z,6.30
2023-04-23T17:52:07.120Z,5.50
2023-04-23T17:55:08.830Z,5.22
2023-04-23T17:58:10.407Z,6.00
2023-04-23T18:01:12.270Z,5.78
2023-04-23T18:04:16.644Z,5.68
2023-04-23T18:07:19.209Z,5.40
2023-04-23T18:10:21.103Z,5.63
2023-04-23T18:13:22.824Z,5.70
2023-04-23T18:16:24.537Z,5.65
2023-04-23T18:19:26.149Z,5.13
2023-04-23T18:22:27.752Z,5.80
2023-04-23T18:25:30.183Z,4.82
2023-04-23T18:28:34.302Z,4.85
2023-04-23T18:31:37.552Z,4.80
2023-04-23T18:34:40.668Z,4.60
2023-04-23T18:37:48.771Z,3.65
2023-04-23T18:40:50.320Z,4.00
2023-04-23T18:43:51.906Z,3.63
2023-04-23T18:46:53.662Z,3.80
2023-04-23T18:50:02.812Z,2.78
2023-04-23T18:53:05.007Z,2.72
2023-04-23T18:56:06.562Z,2.95
2023-04-23T18:59:08.112Z,2.15
2023-04-23T19:02:11.832Z,2.47
2023-04-23T19:05:16.664Z,2.58
2023-04-23T19:08:18.291Z,2.70
2023-04-23T19:11:19.882Z,2.28
2023-04-23T19:14:21.606Z,1.90
2023-04-23T19:17:23.281Z,2.10
2023-04-23T19:20:24.899Z,2.20
2023-04-23T19:23:26.579Z,2.10
2023-04-23T19:26:28.121Z,2.47
2023-04-23T19:29:29.706Z,2.25
2023-04-23T19:32:35.131Z,2.47
2023-04-23T19:35:39.397Z,1.95
2023-04-23T19:38:42.130Z,2.40
2023-04-23T19:41:44.017Z,2.33
2023-04-23T19:44:47.852Z,2.05
2023-04-23T19:47:49.701Z,1.98
2023-04-23T19:50:51.408Z,2.10
2023-04-23T19:53:53.924Z,2.35
2023-04-23T19:56:55.754Z,1.98
2023-04-23T19:59:57.378Z,1.83
2023-04-23T20:02:59.156Z,2.00
2023-04-23T20:06:01.114Z,2.05
2023-04-23T20:09:20.017Z,1.95
2023-04-23T20:12:21.698Z,1.98
2023-04-23T20:15:25.772Z,2.13
2023-04-23T20:18:29.201Z,2.13
2023-04-23T20:21:31.768Z,1.73
2023-04-23T20:24:33.585Z,1.95
2023-04-23T20:27:35.427Z,2.08
2023-04-23T20:30:37.147Z,2.00
2023-04-23T20:33:39.272Z,1.40
2023-04-23T20:36:40.837Z,1.40
2023-04-23T20:39:43.174Z,1.50
2023-04-23T20:42:46.312Z,1.33
2023-04-23T20:45:47.922Z,1.40
2023-04-23T20:48:54.188Z,1.77
2023-04-23T20:51:56.547Z,1.70
2023-04-23T20:54:58.117Z,1.80
2023-04-23T20:57:59.676Z,1.67
2023-04-23T21:01:01.298Z,1.40
2023-04-23T21:04:03.243Z,1.20
2023-04-23T21:07:04.913Z,1.40
2023-04-23T21:10:07.306Z,1.10
2023-04-23T21:13:12.044Z,0.90
2023-04-23T21:16:14.158Z,1.00
2023-04-23T21:19:15.731Z,1.10
2023-04-23T21:22:17.761Z,1.20
2023-04-23T21:25:19.438Z,1.10
2023-04-23T21:28:21.123Z,1.00
2023-04-23T21:31:39.801Z,1.00
2023-04-23T21:34:41.531Z,1.15
2023-04-23T21:37:43.089Z,0.90
2023-04-23T21:40:44.955Z,1.00
2023-04-23T21:43:46.802Z,1.20
2023-04-23T21:46:49.078Z,1.25
2023-04-23T21:49:51.050Z,1.00
2023-04-23T21:52:53.276Z,1.10
2023-04-23T21:55:54.837Z,0.90
2023-04-23T21:58:56.683Z,1.05
2023-04-23T22:01:58.426Z,1.20
2023-04-23T22:05:00.045Z,1.23
2023-04-23T22:08:01.670Z,0.95
2023-04-23T22:11:04.397Z,1.25
2023-04-23T22:14:06.308Z,1.00
2023-04-23T22:17:10.161Z,0.88
2023-04-23T22:20:13.284Z,0.93
2023-04-23T22:23:18.491Z,1.00
2023-04-23T22:26:21.021Z,0.90
2023-04-23T22:29:22.529Z,1.00
2023-04-23T22:32:24.249Z,1.00
2023-04-23T22:35:28.215Z,0.90
2023-04-23T22:38:29.929Z,1.05
2023-04-23T22:41:33.168Z,1.17
2023-04-23T22:44:35.710Z,1.20
2023-04-23T22:47:37.539Z,0.93
2023-04-23T22:50:40.260Z,1.00
2023-04-23T22:53:41.843Z,1.20
2023-04-23T22:56:43.466Z,1.48
2023-04-23T22:59:45.301Z,1.13
2023-04-23T23:02:47.034Z,1.00
2023-04-23T23:05:48.631Z,0.90
2023-04-23T23:08:50.440Z,1.20
2023-04-23T23:11:52.130Z,0.95
2023-04-23T23:14:53.650Z,0.90
2023-04-23T23:17:55.463Z,1.20
2023-04-23T23:20:57.068Z,1.00
2023-04-23T23:23:58.727Z,1.05
2023-04-23T23:27:01.277Z,1.00
2023-04-23T23:30:06.075Z,1.10
2023-04-23T23:33:07.706Z,1.98
2023-04-23T23:36:09.326Z,1.10
2023-04-23T23:39:11.177Z,1.20
2023-04-23T23:42:12.794Z,1.10
2023-04-23T23:45:14.475Z,1.20
2023-04-23T23:48:16.078Z,1.10
2023-04-23T23:51:18.061Z,1.30
2023-04-23T23:54:19.634Z,1.38
2023-04-23T23:57:21.343Z,1.20
